Wetterdaten: Woche 09.01.17 - 15.01.17 (KW2)
Datum Zeit Temperatur Luftfeuchte Luftdruck Niederschlag Windrichtung Sonnenschein Solar Wind
09.01.2017 00:00 -2,3 C 96 % 1030,3 hPa 0,0 l/m N 0,00 h 0 W/m 0,0 km/h (0 Bft)
09.01.2017 01:00 -2,3 C 96 % 1030,2 hPa 0,0 l/m N 0,00 h 0 W/m 0,0 km/h (0 Bft)
09.01.2017 02:00 -2,4 C 96 % 1030,1 hPa 0,0 l/m N 0,00 h 0 W/m 0,0 km/h (0 Bft)
09.01.2017 03:00 -2,6 C 96 % 1030,0 hPa 0,0 l/m N 0,00 h 0 W/m 0,0 km/h (0 Bft)
09.01.2017 04:00 -2,6 C 96 % 1029,9 hPa 0,0 l/m N 0,00 h 0 W/m 0,0 km/h (0 Bft)
09.01.2017 05:00 -2,7 C 97 % 1029,4 hPa 0,0 l/m N 0,00 h 0 W/m 0,0 km/h (0 Bft)
09.01.2017 06:00 -2,7 C 97 % 1029,1 hPa 0,0 l/m N 0,00 h 0 W/m 0,0 km/h (0 Bft)
09.01.2017 07:00 -2,8 C 97 % 1029,0 hPa 0,0 l/m N 0,00 h 0 W/m 0,0 km/h (0 Bft)
09.01.2017 08:00 -2,8 C 97 % 1028,9 hPa 0,0 l/m N 0,00 h 14 W/m 0,0 km/h (0 Bft)
09.01.2017 09:00 -2,5 C 97 % 1028,7 hPa 0,0 l/m N 0,00 h 51 W/m 0,0 km/h (0 Bft)
09.01.2017 10:00 -1,8 C 98 % 1028,4 hPa 0,0 l/m N 0,00 h 103 W/m 0,0 km/h (0 Bft)
09.01.2017 11:00 -0,9 C 98 % 1027,8 hPa 0,0 l/m N 0,00 h 135 W/m 0,0 km/h (0 Bft)
09.01.2017 12:00 -0,0 C 98 % 1027,0 hPa 0,0 l/m N 0,00 h 149 W/m 0,0 km/h (0 Bft)
09.01.2017 13:00 0,2 C 96 % 1026,2 hPa 0,0 l/m W-SW 0,00 h 113 W/m 2,2 km/h (1 Bft)
09.01.2017 14:00 -0,4 C 91 % 1025,5 hPa 0,0 l/m W 0,00 h 76 W/m 5,6 km/h (1 Bft)
09.01.2017 15:00 -0,5 C 87 % 1024,8 hPa 0,0 l/m W 0,00 h 37 W/m 1,6 km/h (1 Bft)
09.01.2017 16:00 -1,0 C 86 % 1024,3 hPa 0,0 l/m W 0,00 h 12 W/m 2,1 km/h (1 Bft)
09.01.2017 17:00 -1,5 C 87 % 1024,2 hPa 0,0 l/m N 0,00 h 0 W/m 1,9 km/h (1 Bft)
09.01.2017 18:00 -1,9 C 87 % 1023,6 hPa 0,0 l/m W 0,00 h 0 W/m 1,7 km/h (1 Bft)
09.01.2017 19:00 -2,3 C 87 % 1023,3 hPa 0,0 l/m W 0,00 h 0 W/m 8,7 km/h (2 Bft)
09.01.2017 20:00 -2,5 C 86 % 1022,5 hPa 0,0 l/m W-NW 0,00 h 0 W/m 9,0 km/h (2 Bft)
09.01.2017 21:00 -2,5 C 85 % 1021,3 hPa 0,0 l/m W 0,00 h 0 W/m 3,7 km/h (1 Bft)
09.01.2017 22:00 -2,7 C 87 % 1020,6 hPa 0,0 l/m N 0,00 h 0 W/m 0,0 km/h (0 Bft)
09.01.2017 23:00 -2,8 C 88 % 1019,7 hPa 0,0 l/m W 0,00 h 0 W/m 4,0 km/h (1 Bft)
10.01.2017 00:00 -2,8 C 89 % 1018,6 hPa 0,0 l/m W-SW 0,00 h 0 W/m 2,1 km/h (1 Bft)
10.01.2017 01:00 -2,9 C 91 % 1017,6 hPa 0,0 l/m W-SW 0,00 h 0 W/m 3,6 km/h (1 Bft)
10.01.2017 02:00 -2,9 C 91 % 1016,8 hPa 0,0 l/m W-SW 0,00 h 0 W/m 10,9 km/h (2 Bft)
10.01.2017 03:00 -2,9 C 89 % 1016,0 hPa 0,0 l/m SW 0,00 h 0 W/m 14,4 km/h (3 Bft)
10.01.2017 04:00 -2,8 C 89 % 1015,2 hPa 0,0 l/m SW 0,00 h 0 W/m 12,9 km/h (3 Bft)
10.01.2017 05:00 -2,8 C 90 % 1014,3 hPa 0,0 l/m SW 0,00 h 0 W/m 10,6 km/h (2 Bft)
10.01.2017 06:00 -3,1 C 91 % 1013,2 hPa 0,0 l/m SW 0,00 h 0 W/m 5,9 km/h (2 Bft)
10.01.2017 07:00 -3,4 C 91 % 1012,4 hPa 0,0 l/m SW 0,00 h 0 W/m 8,2 km/h (2 Bft)
10.01.2017 08:00 -3,4 C 92 % 1011,5 hPa 0,0 l/m S 0,58 h 38 W/m 7,2 km/h (2 Bft)
10.01.2017 09:00 -3,2 C 91 % 1010,8 hPa 0,0 l/m S 0,25 h 75 W/m 3,3 km/h (1 Bft)
10.01.2017 10:00 -2,9 C 90 % 1010,7 hPa 0,0 l/m S 0,00 h 111 W/m 2,5 km/h (1 Bft)
10.01.2017 11:00 -2,1 C 89 % 1010,4 hPa 0,0 l/m S 0,00 h 136 W/m 1,5 km/h (1 Bft)
10.01.2017 12:00 -1,3 C 87 % 1009,8 hPa 0,0 l/m S 0,00 h 126 W/m 0,5 km/h (0 Bft)
10.01.2017 13:00 -0,8 C 88 % 1009,3 hPa 0,2 l/m N 0,00 h 113 W/m 0,0 km/h (0 Bft)
10.01.2017 14:00 -0,9 C 89 % 1009,1 hPa 0,0 l/m N 0,00 h 74 W/m 0,0 km/h (0 Bft)
10.01.2017 15:00 -1,1 C 91 % 1009,2 hPa 0,0 l/m N 0,00 h 36 W/m 0,1 km/h (0 Bft)
10.01.2017 16:00 -1,3 C 92 % 1009,7 hPa 0,0 l/m N 0,00 h 14 W/m 0,0 km/h (0 Bft)
10.01.2017 17:00 -1,6 C 93 % 1010,5 hPa 0,0 l/m N 0,00 h 0 W/m 0,0 km/h (0 Bft)
10.01.2017 18:00 -1,8 C 93 % 1011,1 hPa 0,0 l/m N 0,00 h 0 W/m 0,0 km/h (0 Bft)
10.01.2017 19:00 -1,9 C 94 % 1011,9 hPa 0,0 l/m N 0,00 h 0 W/m 0,0 km/h (0 Bft)
10.01.2017 20:00 -1,9 C 95 % 1012,5 hPa 0,2 l/m N 0,00 h 0 W/m 0,0 km/h (0 Bft)
10.01.2017 21:00 -1,9 C 95 % 1012,8 hPa 0,4 l/m S 0,00 h 0 W/m 2,9 km/h (1 Bft)
10.01.2017 22:00 -1,9 C 95 % 1013,3 hPa 0,0 l/m N 0,00 h 0 W/m 0,3 km/h (0 Bft)
10.01.2017 23:00 -1,9 C 96 % 1013,7 hPa 0,0 l/m N 0,00 h 0 W/m 0,0 km/h (0 Bft)
11.01.2017 00:00 -1,7 C 96 % 1014,0 hPa 0,0 l/m N 0,00 h 0 W/m 0,0 km/h (0 Bft)
11.01.2017 01:00 -1,7 C 96 % 1014,4 hPa 0,0 l/m S 0,00 h 0 W/m 1,9 km/h (1 Bft)
11.01.2017 02:00 -1,7 C 97 % 1014,8 hPa 0,0 l/m S 0,00 h 0 W/m 3,2 km/h (1 Bft)
11.01.2017 03:00 -1,4 C 97 % 1015,0 hPa 0,0 l/m S 0,00 h 0 W/m 2,8 km/h (1 Bft)
11.01.2017 04:00 -1,3 C 97 % 1015,2 hPa 0,0 l/m S 0,00 h 0 W/m 5,7 km/h (1 Bft)
11.01.2017 05:00 -1,2 C 97 % 1015,3 hPa 0,0 l/m S 0,00 h 0 W/m 6,1 km/h (2 Bft)
11.01.2017 06:00 -0,9 C 98 % 1015,3 hPa 0,0 l/m S-SW 0,00 h 0 W/m 4,1 km/h (1 Bft)
11.01.2017 07:00 -0,8 C 98 % 1015,8 hPa 0,0 l/m S-SW 0,00 h 0 W/m 7,9 km/h (2 Bft)
11.01.2017 08:00 -0,4 C 98 % 1016,1 hPa 0,0 l/m W 0,00 h 12 W/m 9,0 km/h (2 Bft)
11.01.2017 09:00 -0,2 C 98 % 1015,9 hPa 0,0 l/m SW 0,00 h 43 W/m 10,2 km/h (2 Bft)
11.01.2017 10:00 0,0 C 98 % 1016,1 hPa 0,0 l/m SW 0,08 h 93 W/m 14,4 km/h (3 Bft)
11.01.2017 11:00 0,7 C 97 % 1016,0 hPa 0,0 l/m W-SW 0,83 h 222 W/m 18,6 km/h (3 Bft)
11.01.2017 12:00 1,3 C 90 % 1014,9 hPa 0,0 l/m W-SW 0,75 h 228 W/m 26,1 km/h (4 Bft)
11.01.2017 13:00 0,9 C 87 % 1014,0 hPa 0,0 l/m W-SW 0,08 h 115 W/m 25,5 km/h (4 Bft)
11.01.2017 14:00 1,3 C 86 % 1012,1 hPa 0,0 l/m W-SW 0,67 h 168 W/m 29,9 km/h (5 Bft)
11.01.2017 15:00 1,3 C 84 % 1011,0 hPa 0,0 l/m W-SW 0,00 h 48 W/m 30,9 km/h (5 Bft)
11.01.2017 16:00 1,4 C 85 % 1010,4 hPa 0,0 l/m W-SW 0,00 h 18 W/m 31,7 km/h (5 Bft)
11.01.2017 17:00 1,4 C 88 % 1010,3 hPa 0,0 l/m W-SW 0,00 h 0 W/m 31,7 km/h (5 Bft)
11.01.2017 18:00 1,5 C 92 % 1010,4 hPa 0,0 l/m W-SW 0,00 h 0 W/m 34,1 km/h (5 Bft)
11.01.2017 19:00 1,6 C 94 % 1011,1 hPa 0,2 l/m W-SW 0,00 h 0 W/m 30,6 km/h (5 Bft)
11.01.2017 20:00 1,6 C 95 % 1011,6 hPa 0,0 l/m W-SW 0,00 h 0 W/m 28,4 km/h (4 Bft)
11.01.2017 21:00 1,8 C 95 % 1012,2 hPa 0,0 l/m W-SW 0,00 h 0 W/m 28,3 km/h (4 Bft)
11.01.2017 22:00 2,2 C 96 % 1012,4 hPa 0,0 l/m W-SW 0,00 h 0 W/m 29,1 km/h (5 Bft)
11.01.2017 23:00 2,6 C 96 % 1012,9 hPa 0,0 l/m W-SW 0,00 h 0 W/m 28,9 km/h (5 Bft)
12.01.2017 00:00 2,8 C 96 % 1013,7 hPa 0,2 l/m W-SW 0,00 h 0 W/m 20,0 km/h (4 Bft)
12.01.2017 01:00 2,8 C 96 % 1014,7 hPa 0,4 l/m W 0,00 h 0 W/m 18,4 km/h (3 Bft)
12.01.2017 02:00 2,6 C 96 % 1015,2 hPa 0,4 l/m W 0,00 h 0 W/m 19,4 km/h (3 Bft)
12.01.2017 03:00 2,2 C 96 % 1015,4 hPa 1,2 l/m W-NW 0,00 h 0 W/m 9,7 km/h (2 Bft)
12.01.2017 04:00 1,9 C 96 % 1015,5 hPa 0,4 l/m W-SW 0,00 h 0 W/m 1,6 km/h (1 Bft)
12.01.2017 05:00 2,4 C 97 % 1015,5 hPa 0,2 l/m W-SW 0,00 h 0 W/m 12,6 km/h (3 Bft)
12.01.2017 06:00 2,7 C 97 % 1015,5 hPa 0,4 l/m W-SW 0,00 h 0 W/m 14,1 km/h (3 Bft)
12.01.2017 07:00 2,8 C 98 % 1015,7 hPa 0,0 l/m W-SW 0,00 h 0 W/m 17,8 km/h (3 Bft)
12.01.2017 08:00 2,9 C 97 % 1016,1 hPa 0,0 l/m W-SW 0,00 h 11 W/m 20,6 km/h (4 Bft)
12.01.2017 09:00 3,2 C 96 % 1016,1 hPa 0,0 l/m W-SW 0,00 h 30 W/m 21,0 km/h (4 Bft)
12.01.2017 10:00 3,2 C 95 % 1015,9 hPa 0,0 l/m W-SW 0,00 h 64 W/m 18,6 km/h (3 Bft)
12.01.2017 11:00 3,7 C 92 % 1015,4 hPa 0,0 l/m W 0,00 h 98 W/m 16,8 km/h (3 Bft)
12.01.2017 12:00 3,9 C 90 % 1014,7 hPa 0,2 l/m W-SW 0,00 h 91 W/m 13,7 km/h (3 Bft)
12.01.2017 13:00 3,5 C 93 % 1013,7 hPa 1,0 l/m W 0,00 h 116 W/m 13,2 km/h (3 Bft)
12.01.2017 14:00 3,0 C 96 % 1012,1 hPa 0,2 l/m SW 0,00 h 75 W/m 10,6 km/h (2 Bft)
12.01.2017 15:00 2,7 C 97 % 1010,9 hPa 0,4 l/m SW 0,00 h 45 W/m 10,3 km/h (2 Bft)
12.01.2017 16:00 2,7 C 97 % 1009,4 hPa 0,0 l/m SW 0,17 h 24 W/m 10,2 km/h (2 Bft)
12.01.2017 17:00 2,3 C 97 % 1007,9 hPa 0,0 l/m SW 0,00 h 0 W/m 9,3 km/h (2 Bft)
12.01.2017 18:00 2,5 C 98 % 1006,1 hPa 0,0 l/m SW 0,00 h 0 W/m 9,8 km/h (2 Bft)
12.01.2017 19:00 2,3 C 98 % 1004,1 hPa 0,0 l/m W-SW 0,00 h 0 W/m 3,2 km/h (1 Bft)
12.01.2017 20:00 2,0 C 98 % 1001,9 hPa 0,2 l/m W-SW 0,00 h 0 W/m 8,9 km/h (2 Bft)
12.01.2017 21:00 1,9 C 98 % 1000,1 hPa 0,0 l/m S-SW 0,00 h 0 W/m 15,3 km/h (3 Bft)
12.01.2017 22:00 2,7 C 98 % 998,8 hPa 0,6 l/m SW 0,00 h 0 W/m 24,1 km/h (4 Bft)
12.01.2017 23:00 3,0 C 98 % 997,7 hPa 0,6 l/m SW 0,00 h 0 W/m 24,0 km/h (4 Bft)
13.01.2017 00:00 2,8 C 97 % 996,5 hPa 0,8 l/m SW 0,00 h 0 W/m 19,7 km/h (3 Bft)
13.01.2017 01:00 3,8 C 98 % 996,0 hPa 0,6 l/m W-SW 0,00 h 0 W/m 38,0 km/h (5 Bft)
13.01.2017 02:00 4,3 C 93 % 996,1 hPa 0,0 l/m W-SW 0,00 h 0 W/m 36,0 km/h (5 Bft)
13.01.2017 03:00 3,5 C 83 % 997,6 hPa 0,0 l/m W-SW 0,00 h 0 W/m 44,0 km/h (6 Bft)
13.01.2017 04:00 2,6 C 82 % 998,0 hPa 0,0 l/m W 0,00 h 0 W/m 37,1 km/h (5 Bft)
13.01.2017 05:00 2,1 C 84 % 999,2 hPa 0,0 l/m W-SW 0,00 h 0 W/m 26,8 km/h (4 Bft)
13.01.2017 06:00 1,7 C 85 % 1000,4 hPa 0,0 l/m W-SW 0,00 h 0 W/m 22,1 km/h (4 Bft)
13.01.2017 07:00 1,4 C 84 % 1001,5 hPa 0,0 l/m W 0,00 h 0 W/m 25,2 km/h (4 Bft)
13.01.2017 08:00 1,2 C 74 % 1002,2 hPa 0,0 l/m W-NW 0,00 h 14 W/m 27,3 km/h (4 Bft)
13.01.2017 09:00 0,8 C 72 % 1002,6 hPa 0,0 l/m W 0,00 h 44 W/m 25,1 km/h (4 Bft)
13.01.2017 10:00 0,6 C 73 % 1002,9 hPa 0,0 l/m W-NW 0,50 h 141 W/m 32,6 km/h (5 Bft)
13.01.2017 11:00 0,6 C 68 % 1003,2 hPa 0,0 l/m W-NW 0,83 h 204 W/m 27,6 km/h (4 Bft)
13.01.2017 12:00 0,9 C 64 % 1003,1 hPa 0,0 l/m W 0,75 h 231 W/m 33,0 km/h (5 Bft)
13.01.2017 13:00 1,5 C 61 % 1003,3 hPa 0,0 l/m W 0,75 h 259 W/m 27,5 km/h (4 Bft)
13.01.2017 14:00 1,7 C 61 % 1003,6 hPa 0,0 l/m W-NW 0,58 h 181 W/m 22,6 km/h (4 Bft)
13.01.2017 15:00 -0,1 C 80 % 1004,4 hPa 0,0 l/m W-NW 0,00 h 59 W/m 15,6 km/h (3 Bft)
13.01.2017 16:00 -0,3 C 79 % 1005,1 hPa 0,0 l/m W 0,00 h 17 W/m 12,4 km/h (3 Bft)
13.01.2017 17:00 -0,6 C 81 % 1005,7 hPa 0,0 l/m W 0,00 h 0 W/m 15,0 km/h (3 Bft)
13.01.2017 18:00 -0,7 C 81 % 1006,4 hPa 0,0 l/m W 0,00 h 0 W/m 16,0 km/h (3 Bft)
13.01.2017 19:00 -0,8 C 83 % 1006,4 hPa 0,0 l/m SW 0,00 h 0 W/m 13,6 km/h (3 Bft)
13.01.2017 20:00 -1,4 C 86 % 1006,4 hPa 0,0 l/m W-SW 0,00 h 0 W/m 13,0 km/h (3 Bft)
13.01.2017 21:00 -1,3 C 88 % 1006,4 hPa 0,0 l/m W-SW 0,00 h 0 W/m 15,3 km/h (3 Bft)
13.01.2017 22:00 -1,4 C 87 % 1006,4 hPa 0,0 l/m W-SW 0,00 h 0 W/m 17,6 km/h (3 Bft)
13.01.2017 23:00 -1,7 C 89 % 1006,5 hPa 0,0 l/m SW 0,00 h 0 W/m 14,9 km/h (3 Bft)
14.01.2017 00:00 -1,7 C 91 % 1006,3 hPa 0,0 l/m W-SW 0,00 h 0 W/m 18,0 km/h (3 Bft)
14.01.2017 01:00 -1,7 C 91 % 1006,1 hPa 0,0 l/m SW 0,00 h 0 W/m 19,8 km/h (4 Bft)
14.01.2017 02:00 -1,8 C 93 % 1006,1 hPa 0,0 l/m W-SW 0,00 h 0 W/m 16,6 km/h (3 Bft)
14.01.2017 03:00 -1,8 C 94 % 1006,5 hPa 0,4 l/m SW 0,00 h 0 W/m 12,1 km/h (2 Bft)
14.01.2017 04:00 -1,6 C 95 % 1006,9 hPa 0,4 l/m SW 0,00 h 0 W/m 8,0 km/h (2 Bft)
14.01.2017 05:00 -1,1 C 96 % 1007,5 hPa 0,4 l/m W 0,00 h 0 W/m 13,7 km/h (3 Bft)
14.01.2017 06:00 -0,7 C 96 % 1008,4 hPa 0,2 l/m W 0,00 h 0 W/m 15,3 km/h (3 Bft)
14.01.2017 07:00 -0,6 C 96 % 1009,2 hPa 0,2 l/m W 0,00 h 0 W/m 10,9 km/h (2 Bft)
14.01.2017 08:00 -0,4 C 96 % 1010,1 hPa 0,0 l/m W-NW 0,00 h 12 W/m 12,8 km/h (3 Bft)
14.01.2017 09:00 -0,3 C 95 % 1011,0 hPa 0,0 l/m W 0,00 h 41 W/m 11,3 km/h (2 Bft)
14.01.2017 10:00 0,1 C 93 % 1011,8 hPa 0,0 l/m W-SW 0,00 h 56 W/m 12,3 km/h (3 Bft)
14.01.2017 11:00 0,4 C 93 % 1012,3 hPa 0,0 l/m W-NW 0,00 h 91 W/m 6,7 km/h (2 Bft)
14.01.2017 12:00 0,5 C 89 % 1012,4 hPa 0,4 l/m W-NW 0,33 h 177 W/m 16,4 km/h (3 Bft)
14.01.2017 13:00 0,4 C 82 % 1012,8 hPa 0,0 l/m W-NW 0,17 h 165 W/m 14,2 km/h (3 Bft)
14.01.2017 14:00 0,4 C 83 % 1013,1 hPa 0,0 l/m W-NW 0,83 h 217 W/m 14,5 km/h (3 Bft)
14.01.2017 15:00 0,2 C 84 % 1013,8 hPa 0,0 l/m W-NW 0,58 h 106 W/m 10,9 km/h (2 Bft)
14.01.2017 16:00 -0,9 C 89 % 1014,1 hPa 0,2 l/m W-NW 0,08 h 17 W/m 14,9 km/h (3 Bft)
14.01.2017 17:00 -1,7 C 90 % 1014,8 hPa 0,0 l/m W 0,00 h 0 W/m 13,3 km/h (3 Bft)
14.01.2017 18:00 -2,1 C 88 % 1015,5 hPa 0,0 l/m W 0,00 h 0 W/m 7,3 km/h (2 Bft)
14.01.2017 19:00 -2,2 C 88 % 1016,2 hPa 0,0 l/m W 0,00 h 0 W/m 7,8 km/h (2 Bft)
14.01.2017 20:00 -2,1 C 88 % 1016,5 hPa 0,0 l/m W-SW 0,00 h 0 W/m 11,0 km/h (2 Bft)
14.01.2017 21:00 -2,4 C 89 % 1016,5 hPa 0,0 l/m SW 0,00 h 0 W/m 14,2 km/h (3 Bft)
14.01.2017 22:00 -2,6 C 90 % 1016,4 hPa 0,0 l/m W-SW 0,00 h 0 W/m 13,8 km/h (3 Bft)
14.01.2017 23:00 -2,3 C 90 % 1016,4 hPa 0,0 l/m W 0,00 h 0 W/m 17,6 km/h (3 Bft)
15.01.2017 00:00 -2,6 C 91 % 1016,7 hPa 0,0 l/m W-SW 0,00 h 0 W/m 14,2 km/h (3 Bft)
15.01.2017 01:00 -2,8 C 93 % 1016,9 hPa 0,2 l/m W-SW 0,00 h 0 W/m 12,1 km/h (2 Bft)
15.01.2017 02:00 -2,8 C 93 % 1017,2 hPa 0,0 l/m W-SW 0,00 h 0 W/m 12,8 km/h (3 Bft)
15.01.2017 03:00 -2,9 C 93 % 1017,4 hPa 0,0 l/m W-SW 0,00 h 0 W/m 17,6 km/h (3 Bft)
15.01.2017 04:00 -2,9 C 93 % 1017,6 hPa 0,0 l/m SW 0,00 h 0 W/m 10,9 km/h (2 Bft)
15.01.2017 05:00 -2,9 C 93 % 1017,6 hPa 0,0 l/m W 0,00 h 0 W/m 12,2 km/h (2 Bft)
15.01.2017 06:00 -3,0 C 93 % 1018,1 hPa 0,2 l/m W-SW 0,00 h 0 W/m 13,7 km/h (3 Bft)
15.01.2017 07:00 -3,4 C 93 % 1018,8 hPa 0,0 l/m W-SW 0,00 h 0 W/m 9,3 km/h (2 Bft)
15.01.2017 08:00 -3,3 C 94 % 1019,4 hPa 0,0 l/m W-SW 0,00 h 19 W/m 7,1 km/h (2 Bft)
15.01.2017 09:00 -2,9 C 94 % 1020,0 hPa 0,0 l/m W-SW 0,00 h 50 W/m 8,5 km/h (2 Bft)
15.01.2017 10:00 -2,4 C 94 % 1020,4 hPa 0,2 l/m W-SW 0,08 h 107 W/m 10,2 km/h (2 Bft)
15.01.2017 11:00 -1,6 C 92 % 1020,6 hPa 0,0 l/m W-SW 0,42 h 187 W/m 10,5 km/h (2 Bft)
15.01.2017 12:00 -1,5 C 90 % 1020,5 hPa 0,0 l/m W-SW 0,08 h 141 W/m 12,2 km/h (2 Bft)
15.01.2017 13:00 -1,8 C 92 % 1020,4 hPa 0,0 l/m W-SW 0,00 h 30 W/m 7,0 km/h (2 Bft)
15.01.2017 14:00 -1,8 C 94 % 1020,3 hPa 1,4 l/m W-SW 0,00 h 20 W/m 2,4 km/h (1 Bft)
15.01.2017 15:00 -1,8 C 94 % 1020,6 hPa 1,4 l/m N 0,00 h 15 W/m 0,8 km/h (0 Bft)
15.01.2017 16:00 -2,1 C 94 % 1020,9 hPa 0,4 l/m NW 0,00 h 18 W/m 4,8 km/h (1 Bft)
15.01.2017 17:00 -2,6 C 93 % 1021,0 hPa 0,2 l/m NW 0,00 h 0 W/m 0,8 km/h (0 Bft)
15.01.2017 18:00 -3,6 C 92 % 1021,2 hPa 0,0 l/m N 0,00 h 0 W/m 0,3 km/h (0 Bft)
15.01.2017 19:00 -4,7 C 92 % 1021,3 hPa 0,0 l/m N 0,00 h 0 W/m 0,0 km/h (0 Bft)
15.01.2017 20:00 -6,3 C 91 % 1021,4 hPa 0,0 l/m N 0,00 h 0 W/m 0,0 km/h (0 Bft)
15.01.2017 21:00 -7,2 C 92 % 1021,5 hPa 0,0 l/m N 0,00 h 0 W/m 0,0 km/h (0 Bft)
15.01.2017 22:00 -7,1 C 93 % 1021,6 hPa 0,0 l/m N 0,00 h 0 W/m 0,0 km/h (0 Bft)
15.01.2017 23:00 -7,0 C 93 % 1021,5 hPa 0,0 l/m N 0,00 h 0 W/m 0,0 km/h (0 Bft)
Min-Datum _ 15.01.17 13.01.17 13.01.17 - - - - 09.01.17
_ Min-Zeit 21:40 13:40 02:05 - - - - 00:00
Minimum _ -7,4 C 59 % 995,5 hPa - - - - 0,0 km/h (0 Bft)
Max-Datum _ 13.01.17 12.01.17 09.01.17 15.01.17 - 10.01.17 11.01.17 13.01.17
_ Max-Zeit 02:20 22:10 00:00 14:40 - 08:25 11:00 03:30
Maximum _ 4,4 C 99 % 1030,4 hPa 1,4 l/m - 0,08 h 371 W/m 54,7 km/h
W (7 Bft)
Durchschnitt _ -0,7 C 91 % 1013,9 hPa #15,0 l/m W-SW #9:25 h 88 W/m 11,7 km/h (2 Bft)